sensor_id;sensor_type;location;lat;lon;timestamp;P1;durP1;ratioP1;P2;durP2;ratioP2
10132;SDS011;5106;50.926;7.080;2024-03-02T00:00:19;2.10;;;1.40;;
10132;SDS011;5106;50.926;7.080;2024-03-02T00:02:46;2.40;;;1.30;;
10132;SDS011;5106;50.926;7.080;2024-03-02T00:05:14;3.13;;;1.60;;
10132;SDS011;5106;50.926;7.080;2024-03-02T00:07:51;1.60;;;1.20;;
10132;SDS011;5106;50.926;7.080;2024-03-02T00:10:22;3.47;;;1.73;;
10132;SDS011;5106;50.926;7.080;2024-03-02T00:12:55;1.55;;;1.40;;
10132;SDS011;5106;50.926;7.080;2024-03-02T00:17:58;1.40;;;1.27;;
10132;SDS011;5106;50.926;7.080;2024-03-02T00:20:24;1.60;;;1.30;;
10132;SDS011;5106;50.926;7.080;2024-03-02T00:22:58;2.15;;;1.50;;
10132;SDS011;5106;50.926;7.080;2024-03-02T00:25:27;2.03;;;1.20;;
10132;SDS011;5106;50.926;7.080;2024-03-02T00:27:59;1.70;;;1.50;;
10132;SDS011;5106;50.926;7.080;2024-03-02T00:31:09;2.33;;;1.47;;
10132;SDS011;5106;50.926;7.080;2024-03-02T00:33:15;2.13;;;1.42;;
10132;SDS011;5106;50.926;7.080;2024-03-02T00:35:40;1.80;;;1.30;;
10132;SDS011;5106;50.926;7.080;2024-03-02T00:38:09;1.70;;;1.20;;
10132;SDS011;5106;50.926;7.080;2024-03-02T00:40:35;1.70;;;1.43;;
10132;SDS011;5106;50.926;7.080;2024-03-02T00:43:01;1.50;;;1.37;;
10132;SDS011;5106;50.926;7.080;2024-03-02T00:45:28;3.77;;;1.43;;
10132;SDS011;5106;50.926;7.080;2024-03-02T00:47:54;1.53;;;1.20;;
10132;SDS011;5106;50.926;7.080;2024-03-02T00:50:20;2.97;;;1.40;;
10132;SDS011;5106;50.926;7.080;2024-03-02T00:52:46;1.40;;;1.20;;
10132;SDS011;5106;50.926;7.080;2024-03-02T00:55:15;1.95;;;1.35;;
10132;SDS011;5106;50.926;7.080;2024-03-02T00:57:41;1.70;;;1.20;;
10132;SDS011;5106;50.926;7.080;2024-03-02T01:00:06;1.40;;;1.27;;
10132;SDS011;5106;50.926;7.080;2024-03-02T01:02:35;1.38;;;1.02;;
10132;SDS011;5106;50.926;7.080;2024-03-02T01:05:01;2.07;;;1.30;;
10132;SDS011;5106;50.926;7.080;2024-03-02T01:07:26;1.37;;;1.27;;
10132;SDS011;5106;50.926;7.080;2024-03-02T01:09:52;2.35;;;1.45;;
10132;SDS011;5106;50.926;7.080;2024-03-02T01:12:17;1.33;;;1.23;;
10132;SDS011;5106;50.926;7.080;2024-03-02T01:14:43;1.42;;;1.13;;
10132;SDS011;5106;50.926;7.080;2024-03-02T01:17:08;2.10;;;1.20;;
10132;SDS011;5106;50.926;7.080;2024-03-02T01:19:34;2.10;;;1.43;;
10132;SDS011;5106;50.926;7.080;2024-03-02T01:22:06;1.15;;;1.05;;
10132;SDS011;5106;50.926;7.080;2024-03-02T01:24:32;1.57;;;1.30;;
10132;SDS011;5106;50.926;7.080;2024-03-02T01:26:57;1.80;;;1.20;;
10132;SDS011;5106;50.926;7.080;2024-03-02T01:29:23;2.83;;;1.23;;
10132;SDS011;5106;50.926;7.080;2024-03-02T01:31:48;2.03;;;1.20;;
10132;SDS011;5106;50.926;7.080;2024-03-02T01:34:15;1.48;;;1.30;;
10132;SDS011;5106;50.926;7.080;2024-03-02T01:36:41;1.95;;;1.30;;
10132;SDS011;5106;50.926;7.080;2024-03-02T01:39:06;2.10;;;1.27;;
10132;SDS011;5106;50.926;7.080;2024-03-02T01:41:34;1.35;;;1.13;;
10132;SDS011;5106;50.926;7.080;2024-03-02T01:44:00;1.20;;;1.10;;
10132;SDS011;5106;50.926;7.080;2024-03-02T01:46:25;1.40;;;1.13;;
10132;SDS011;5106;50.926;7.080;2024-03-02T01:48:51;1.73;;;1.20;;
10132;SDS011;5106;50.926;7.080;2024-03-02T01:51:17;1.50;;;1.17;;
10132;SDS011;5106;50.926;7.080;2024-03-02T01:53:42;1.40;;;1.00;;
10132;SDS011;5106;50.926;7.080;2024-03-02T01:56:08;1.30;;;1.20;;
10132;SDS011;5106;50.926;7.080;2024-03-02T01:58:33;1.40;;;1.10;;
10132;SDS011;5106;50.926;7.080;2024-03-02T02:00:59;1.85;;;1.20;;
10132;SDS011;5106;50.926;7.080;2024-03-02T02:03:24;1.97;;;1.10;;
10132;SDS011;5106;50.926;7.080;2024-03-02T02:05:50;1.10;;;1.00;;
10132;SDS011;5106;50.926;7.080;2024-03-02T02:08:16;2.03;;;1.10;;
10132;SDS011;5106;50.926;7.080;2024-03-02T02:10:42;1.23;;;1.03;;
10132;SDS011;5106;50.926;7.080;2024-03-02T02:13:07;2.73;;;1.30;;
10132;SDS011;5106;50.926;7.080;2024-03-02T02:15:33;1.13;;;1.00;;
10132;SDS011;5106;50.926;7.080;2024-03-02T02:18:01;2.83;;;1.33;;
10132;SDS011;5106;50.926;7.080;2024-03-02T02:20:27;1.23;;;1.03;;
10132;SDS011;5106;50.926;7.080;2024-03-02T02:22:56;1.38;;;1.10;;
10132;SDS011;5106;50.926;7.080;2024-03-02T02:25:23;3.30;;;1.13;;
10132;SDS011;5106;50.926;7.080;2024-03-02T02:27:48;1.63;;;1.07;;
10132;SDS011;5106;50.926;7.080;2024-03-02T02:30:18;1.37;;;1.27;;
10132;SDS011;5106;50.926;7.080;2024-03-02T02:32:47;1.17;;;1.00;;
10132;SDS011;5106;50.926;7.080;2024-03-02T02:35:13;1.23;;;1.00;;
10132;SDS011;5106;50.926;7.080;2024-03-02T02:37:39;3.25;;;1.30;;
10132;SDS011;5106;50.926;7.080;2024-03-02T02:40:05;1.70;;;1.20;;
10132;SDS011;5106;50.926;7.080;2024-03-02T02:42:31;1.60;;;1.20;;
10132;SDS011;5106;50.926;7.080;2024-03-02T02:44:56;1.73;;;1.27;;
10132;SDS011;5106;50.926;7.080;2024-03-02T02:47:22;1.40;;;1.20;;
10132;SDS011;5106;50.926;7.080;2024-03-02T02:49:47;1.23;;;1.07;;
10132;SDS011;5106;50.926;7.080;2024-03-02T02:52:13;1.50;;;1.13;;
10132;SDS011;5106;50.926;7.080;2024-03-02T02:54:38;2.20;;;1.20;;
10132;SDS011;5106;50.926;7.080;2024-03-02T02:57:04;1.80;;;1.33;;
10132;SDS011;5106;50.926;7.080;2024-03-02T02:59:29;1.30;;;1.15;;
10132;SDS011;5106;50.926;7.080;2024-03-02T03:01:55;1.25;;;1.15;;
10132;SDS011;5106;50.926;7.080;2024-03-02T03:04:20;1.30;;;1.20;;
10132;SDS011;5106;50.926;7.080;2024-03-02T03:06:46;1.20;;;1.10;;
10132;SDS011;5106;50.926;7.080;2024-03-02T03:09:12;1.47;;;1.07;;
10132;SDS011;5106;50.926;7.080;2024-03-02T03:11:37;2.15;;;1.40;;
10132;SDS011;5106;50.926;7.080;2024-03-02T03:14:03;1.03;;;1.00;;
10132;SDS011;5106;50.926;7.080;2024-03-02T03:16:30;2.80;;;1.23;;
10132;SDS011;5106;50.926;7.080;2024-03-02T03:18:55;2.45;;;1.25;;
10132;SDS011;5106;50.926;7.080;2024-03-02T03:21:21;2.05;;;1.30;;
10132;SDS011;5106;50.926;7.080;2024-03-02T03:23:46;3.65;;;1.30;;
10132;SDS011;5106;50.926;7.080;2024-03-02T03:26:12;1.40;;;1.10;;
10132;SDS011;5106;50.926;7.080;2024-03-02T03:28:38;1.60;;;1.03;;
10132;SDS011;5106;50.926;7.080;2024-03-02T03:31:04;1.15;;;1.05;;
10132;SDS011;5106;50.926;7.080;2024-03-02T03:33:29;1.77;;;1.27;;
10132;SDS011;5106;50.926;7.080;2024-03-02T03:35:55;2.00;;;1.10;;
10132;SDS011;5106;50.926;7.080;2024-03-02T03:38:20;1.98;;;1.30;;
10132;SDS011;5106;50.926;7.080;2024-03-02T03:40:46;1.63;;;1.20;;
10132;SDS011;5106;50.926;7.080;2024-03-02T03:43:12;2.63;;;1.40;;
10132;SDS011;5106;50.926;7.080;2024-03-02T03:45:38;2.03;;;1.03;;
10132;SDS011;5106;50.926;7.080;2024-03-02T03:48:03;1.33;;;1.02;;
10132;SDS011;5106;50.926;7.080;2024-03-02T03:50:29;2.65;;;1.13;;
10132;SDS011;5106;50.926;7.080;2024-03-02T03:52:55;2.80;;;1.27;;
10132;SDS011;5106;50.926;7.080;2024-03-02T03:55:20;1.87;;;1.20;;
10132;SDS011;5106;50.926;7.080;2024-03-02T03:57:46;1.60;;;1.10;;
10132;SDS011;5106;50.926;7.080;2024-03-02T04:00:11;1.40;;;1.20;;
10132;SDS011;5106;50.926;7.080;2024-03-02T04:02:38;1.50;;;1.17;;
10132;SDS011;5106;50.926;7.080;2024-03-02T04:05:04;2.55;;;1.00;;
10132;SDS011;5106;50.926;7.080;2024-03-02T04:07:33;2.17;;;1.17;;
10132;SDS011;5106;50.926;7.080;2024-03-02T04:10:06;1.87;;;1.27;;
10132;SDS011;5106;50.926;7.080;2024-03-02T04:12:33;2.22;;;1.23;;
10132;SDS011;5106;50.926;7.080;2024-03-02T04:15:00;2.63;;;1.20;;
10132;SDS011;5106;50.926;7.080;2024-03-02T04:17:26;1.58;;;1.30;;
10132;SDS011;5106;50.926;7.080;2024-03-02T04:19:52;1.65;;;1.15;;
10132;SDS011;5106;50.926;7.080;2024-03-02T04:22:17;1.63;;;1.10;;
10132;SDS011;5106;50.926;7.080;2024-03-02T04:24:43;2.70;;;1.10;;
10132;SDS011;5106;50.926;7.080;2024-03-02T04:27:09;1.35;;;1.08;;
10132;SDS011;5106;50.926;7.080;2024-03-02T04:29:34;2.17;;;1.20;;
10132;SDS011;5106;50.926;7.080;2024-03-02T04:32:00;1.73;;;1.20;;
10132;SDS011;5106;50.926;7.080;2024-03-02T04:34:25;1.40;;;1.30;;
10132;SDS011;5106;50.926;7.080;2024-03-02T04:36:51;2.90;;;1.17;;
10132;SDS011;5106;50.926;7.080;2024-03-02T04:39:16;2.40;;;1.37;;
10132;SDS011;5106;50.926;7.080;2024-03-02T04:41:42;1.67;;;1.30;;
10132;SDS011;5106;50.926;7.080;2024-03-02T04:44:08;1.60;;;1.10;;
10132;SDS011;5106;50.926;7.080;2024-03-02T04:46:33;1.50;;;1.30;;
10132;SDS011;5106;50.926;7.080;2024-03-02T04:48:59;2.23;;;1.47;;
10132;SDS011;5106;50.926;7.080;2024-03-02T04:51:24;1.53;;;1.20;;
10132;SDS011;5106;50.926;7.080;2024-03-02T04:53:50;1.87;;;1.37;;
10132;SDS011;5106;50.926;7.080;2024-03-02T04:56:15;1.40;;;1.10;;
10132;SDS011;5106;50.926;7.080;2024-03-02T04:58:56;1.33;;;1.00;;
10132;SDS011;5106;50.926;7.080;2024-03-02T05:01:22;1.63;;;1.30;;
10132;SDS011;5106;50.926;7.080;2024-03-02T05:03:47;1.60;;;1.10;;
10132;SDS011;5106;50.926;7.080;2024-03-02T05:06:13;1.67;;;1.10;;
10132;SDS011;5106;50.926;7.080;2024-03-02T05:08:38;2.17;;;1.23;;
10132;SDS011;5106;50.926;7.080;2024-03-02T05:11:04;2.43;;;1.47;;
10132;SDS011;5106;50.926;7.080;2024-03-02T05:13:48;1.90;;;1.30;;
10132;SDS011;5106;50.926;7.080;2024-03-02T05:16:16;2.13;;;1.40;;
10132;SDS011;5106;50.926;7.080;2024-03-02T05:18:42;2.80;;;1.40;;
10132;SDS011;5106;50.926;7.080;2024-03-02T05:21:08;2.30;;;1.50;;
10132;SDS011;5106;50.926;7.080;2024-03-02T05:23:33;3.50;;;1.47;;
10132;SDS011;5106;50.926;7.080;2024-03-02T05:25:59;1.60;;;1.30;;
10132;SDS011;5106;50.926;7.080;2024-03-02T05:28:24;4.27;;;1.47;;
10132;SDS011;5106;50.926;7.080;2024-03-02T05:30:50;2.00;;;1.40;;
10132;SDS011;5106;50.926;7.080;2024-03-02T05:33:16;2.13;;;1.40;;
10132;SDS011;5106;50.926;7.080;2024-03-02T05:35:43;2.40;;;1.50;;
10132;SDS011;5106;50.926;7.080;2024-03-02T05:38:09;2.30;;;1.47;;
10132;SDS011;5106;50.926;7.080;2024-03-02T05:40:34;1.87;;;1.50;;
10132;SDS011;5106;50.926;7.080;2024-03-02T05:43:00;1.90;;;1.37;;
10132;SDS011;5106;50.926;7.080;2024-03-02T05:45:25;3.07;;;1.60;;
10132;SDS011;5106;50.926;7.080;2024-03-02T05:47:51;2.03;;;1.40;;
10132;SDS011;5106;50.926;7.080;2024-03-02T05:50:16;4.87;;;1.53;;
10132;SDS011;5106;50.926;7.080;2024-03-02T05:52:43;2.33;;;1.70;;
10132;SDS011;5106;50.926;7.080;2024-03-02T05:55:09;2.23;;;1.83;;
10132;SDS011;5106;50.926;7.080;2024-03-02T05:57:34;1.90;;;1.70;;
10132;SDS011;5106;50.926;7.080;2024-03-02T06:00:09;2.40;;;1.70;;
10132;SDS011;5106;50.926;7.080;2024-03-02T06:02:38;2.63;;;1.80;;
10132;SDS011;5106;50.926;7.080;2024-03-02T06:05:04;2.33;;;1.60;;
10132;SDS011;5106;50.926;7.080;2024-03-02T06:07:32;2.47;;;1.50;;
10132;SDS011;5106;50.926;7.080;2024-03-02T06:09:58;2.93;;;1.80;;
10132;SDS011;5106;50.926;7.080;2024-03-02T06:12:23;4.33;;;1.70;;
10132;SDS011;5106;50.926;7.080;2024-03-02T06:14:49;2.83;;;1.87;;
10132;SDS011;5106;50.926;7.080;2024-03-02T06:17:14;2.77;;;1.77;;
10132;SDS011;5106;50.926;7.080;2024-03-02T06:19:40;3.00;;;1.80;;
10132;SDS011;5106;50.926;7.080;2024-03-02T06:22:06;3.80;;;2.00;;
10132;SDS011;5106;50.926;7.080;2024-03-02T06:24:34;3.87;;;2.10;;
10132;SDS011;5106;50.926;7.080;2024-03-02T06:27:02;3.13;;;1.90;;
10132;SDS011;5106;50.926;7.080;2024-03-02T06:29:27;5.57;;;2.20;;
10132;SDS011;5106;50.926;7.080;2024-03-02T06:31:53;4.97;;;2.43;;
10132;SDS011;5106;50.926;7.080;2024-03-02T06:34:18;3.70;;;2.20;;
10132;SDS011;5106;50.926;7.080;2024-03-02T06:36:44;5.17;;;2.33;;
10132;SDS011;5106;50.926;7.080;2024-03-02T06:39:10;2.73;;;2.20;;
10132;SDS011;5106;50.926;7.080;2024-03-02T06:41:37;2.90;;;2.00;;
10132;SDS011;5106;50.926;7.080;2024-03-02T06:44:03;3.63;;;2.00;;
10132;SDS011;5106;50.926;7.080;2024-03-02T06:46:28;4.57;;;2.27;;
10132;SDS011;5106;50.926;7.080;2024-03-02T06:48:54;2.70;;;1.83;;
10132;SDS011;5106;50.926;7.080;2024-03-02T06:51:20;2.77;;;1.93;;
10132;SDS011;5106;50.926;7.080;2024-03-02T06:53:45;2.80;;;2.00;;
10132;SDS011;5106;50.926;7.080;2024-03-02T06:56:11;2.80;;;2.20;;
10132;SDS011;5106;50.926;7.080;2024-03-02T06:58:37;3.57;;;2.20;;
10132;SDS011;5106;50.926;7.080;2024-03-02T07:01:03;4.10;;;2.37;;
10132;SDS011;5106;50.926;7.080;2024-03-02T07:03:28;3.20;;;2.40;;
10132;SDS011;5106;50.926;7.080;2024-03-02T07:05:54;3.20;;;2.30;;
10132;SDS011;5106;50.926;7.080;2024-03-02T07:08:19;3.03;;;2.00;;
10132;SDS011;5106;50.926;7.080;2024-03-02T07:10:45;2.73;;;1.83;;
10132;SDS011;5106;50.926;7.080;2024-03-02T07:13:13;2.90;;;2.13;;
10132;SDS011;5106;50.926;7.080;2024-03-02T07:15:38;2.43;;;2.00;;
10132;SDS011;5106;50.926;7.080;2024-03-02T07:18:24;2.20;;;2.00;;
10132;SDS011;5106;50.926;7.080;2024-03-02T07:20:50;4.37;;;2.40;;
10132;SDS011;5106;50.926;7.080;2024-03-02T07:23:15;2.80;;;1.90;;
10132;SDS011;5106;50.926;7.080;2024-03-02T07:25:41;2.50;;;1.90;;
10132;SDS011;5106;50.926;7.080;2024-03-02T07:28:06;3.30;;;2.00;;
10132;SDS011;5106;50.926;7.080;2024-03-02T07:30:32;3.13;;;2.20;;
10132;SDS011;5106;50.926;7.080;2024-03-02T07:32:58;3.30;;;2.53;;
10132;SDS011;5106;50.926;7.080;2024-03-02T07:35:24;4.00;;;2.20;;
10132;SDS011;5106;50.926;7.080;2024-03-02T07:37:55;2.90;;;1.87;;
10132;SDS011;5106;50.926;7.080;2024-03-02T07:40:21;3.03;;;2.30;;
10132;SDS011;5106;50.926;7.080;2024-03-02T07:42:47;3.13;;;2.13;;
10132;SDS011;5106;50.926;7.080;2024-03-02T07:45:12;2.70;;;1.90;;
10132;SDS011;5106;50.926;7.080;2024-03-02T07:47:41;3.33;;;2.13;;
10132;SDS011;5106;50.926;7.080;2024-03-02T07:50:07;3.23;;;2.00;;
10132;SDS011;5106;50.926;7.080;2024-03-02T07:52:32;3.07;;;2.20;;
10132;SDS011;5106;50.926;7.080;2024-03-02T07:54:58;3.43;;;2.10;;
10132;SDS011;5106;50.926;7.080;2024-03-02T07:57:24;2.03;;;1.80;;
10132;SDS011;5106;50.926;7.080;2024-03-02T07:59:50;2.60;;;1.70;;
10132;SDS011;5106;50.926;7.080;2024-03-02T08:02:16;2.80;;;2.07;;
10132;SDS011;5106;50.926;7.080;2024-03-02T08:04:41;2.10;;;1.80;;
10132;SDS011;5106;50.926;7.080;2024-03-02T08:07:07;2.38;;;2.03;;
10132;SDS011;5106;50.926;7.080;2024-03-02T08:09:34;3.58;;;2.17;;
10132;SDS011;5106;50.926;7.080;2024-03-02T08:12:00;3.92;;;1.95;;
10132;SDS011;5106;50.926;7.080;2024-03-02T08:14:25;1.98;;;1.75;;
10132;SDS011;5106;50.926;7.080;2024-03-02T08:16:51;5.47;;;2.13;;
10132;SDS011;5106;50.926;7.080;2024-03-02T08:19:17;2.90;;;2.10;;
10132;SDS011;5106;50.926;7.080;2024-03-02T08:21:43;2.60;;;1.90;;
10132;SDS011;5106;50.926;7.080;2024-03-02T08:24:09;2.65;;;2.00;;
10132;SDS011;5106;50.926;7.080;2024-03-02T08:26:34;3.80;;;1.92;;
10132;SDS011;5106;50.926;7.080;2024-03-02T08:29:00;3.05;;;1.80;;
10132;SDS011;5106;50.926;7.080;2024-03-02T08:31:29;2.67;;;1.98;;
10132;SDS011;5106;50.926;7.080;2024-03-02T08:33:55;2.28;;;1.77;;
10132;SDS011;5106;50.926;7.080;2024-03-02T08:36:22;2.95;;;1.88;;
10132;SDS011;5106;50.926;7.080;2024-03-02T08:38:51;4.93;;;2.20;;
10132;SDS011;5106;50.926;7.080;2024-03-02T08:41:17;4.25;;;1.58;;
10132;SDS011;5106;50.926;7.080;2024-03-02T08:43:43;2.42;;;1.85;;
10132;SDS011;5106;50.926;7.080;2024-03-02T08:46:09;1.88;;;1.50;;
10132;SDS011;5106;50.926;7.080;2024-03-02T08:48:35;3.28;;;1.80;;
10132;SDS011;5106;50.926;7.080;2024-03-02T08:51:00;2.63;;;1.85;;
10132;SDS011;5106;50.926;7.080;2024-03-02T08:53:27;3.30;;;1.75;;
10132;SDS011;5106;50.926;7.080;2024-03-02T08:55:53;2.10;;;1.55;;
10132;SDS011;5106;50.926;7.080;2024-03-02T08:58:20;2.10;;;1.70;;
10132;SDS011;5106;50.926;7.080;2024-03-02T09:00:46;2.53;;;1.83;;
10132;SDS011;5106;50.926;7.080;2024-03-02T09:03:12;1.65;;;1.50;;
10132;SDS011;5106;50.926;7.080;2024-03-02T09:05:38;2.30;;;1.73;;
10132;SDS011;5106;50.926;7.080;2024-03-02T09:08:04;1.80;;;1.60;;
10132;SDS011;5106;50.926;7.080;2024-03-02T09:10:30;2.17;;;1.63;;
10132;SDS011;5106;50.926;7.080;2024-03-02T09:12:56;2.60;;;1.90;;
10132;SDS011;5106;50.926;7.080;2024-03-02T09:15:21;4.65;;;2.10;;
10132;SDS011;5106;50.926;7.080;2024-03-02T09:17:47;4.80;;;1.98;;
10132;SDS011;5106;50.926;7.080;2024-03-02T09:20:12;3.05;;;1.60;;
10132;SDS011;5106;50.926;7.080;2024-03-02T09:22:39;4.50;;;1.90;;
10132;SDS011;5106;50.926;7.080;2024-03-02T09:25:04;3.17;;;1.70;;
10132;SDS011;5106;50.926;7.080;2024-03-02T09:27:32;5.15;;;1.60;;
10132;SDS011;5106;50.926;7.080;2024-03-02T09:29:57;4.25;;;2.10;;
10132;SDS011;5106;50.926;7.080;2024-03-02T09:32:23;1.60;;;1.40;;
10132;SDS011;5106;50.926;7.080;2024-03-02T09:34:49;2.13;;;1.48;;
10132;SDS011;5106;50.926;7.080;2024-03-02T09:37:14;1.67;;;1.40;;
10132;SDS011;5106;50.926;7.080;2024-03-02T09:39:40;2.30;;;1.50;;
10132;SDS011;5106;50.926;7.080;2024-03-02T09:42:08;1.70;;;1.25;;
10132;SDS011;5106;50.926;7.080;2024-03-02T09:44:33;2.08;;;1.60;;
10132;SDS011;5106;50.926;7.080;2024-03-02T09:46:59;2.47;;;1.70;;
10132;SDS011;5106;50.926;7.080;2024-03-02T09:49:25;2.45;;;1.40;;
10132;SDS011;5106;50.926;7.080;2024-03-02T09:51:50;1.90;;;1.40;;
10132;SDS011;5106;50.926;7.080;2024-03-02T09:54:16;1.77;;;1.42;;
10132;SDS011;5106;50.926;7.080;2024-03-02T09:56:42;2.90;;;1.70;;
10132;SDS011;5106;50.926;7.080;2024-03-02T09:59:08;5.72;;;1.70;;
10132;SDS011;5106;50.926;7.080;2024-03-02T10:01:34;3.45;;;1.85;;
10132;SDS011;5106;50.926;7.080;2024-03-02T10:04:00;2.17;;;1.40;;
10132;SDS011;5106;50.926;7.080;2024-03-02T10:06:27;4.00;;;1.50;;
10132;SDS011;5106;50.926;7.080;2024-03-02T10:08:54;1.88;;;1.45;;
10132;SDS011;5106;50.926;7.080;2024-03-02T10:11:27;2.05;;;1.38;;
10132;SDS011;5106;50.926;7.080;2024-03-02T10:14:05;2.75;;;1.55;;
10132;SDS011;5106;50.926;7.080;2024-03-02T10:16:39;2.35;;;1.48;;
10132;SDS011;5106;50.926;7.080;2024-03-02T10:19:18;2.70;;;1.48;;
10132;SDS011;5106;50.926;7.080;2024-03-02T10:21:51;2.85;;;1.58;;
10132;SDS011;5106;50.926;7.080;2024-03-02T10:24:20;3.80;;;1.63;;
10132;SDS011;5106;50.926;7.080;2024-03-02T10:26:46;1.40;;;1.30;;
10132;SDS011;5106;50.926;7.080;2024-03-02T10:29:12;2.97;;;1.50;;
10132;SDS011;5106;50.926;7.080;2024-03-02T10:31:38;1.58;;;1.15;;
10132;SDS011;5106;50.926;7.080;2024-03-02T10:34:06;2.10;;;1.10;;
10132;SDS011;5106;50.926;7.080;2024-03-02T10:36:35;3.08;;;1.15;;
10132;SDS011;5106;50.926;7.080;2024-03-02T10:39:05;1.70;;;1.08;;
10132;SDS011;5106;50.926;7.080;2024-03-02T10:41:32;1.75;;;1.10;;
10132;SDS011;5106;50.926;7.080;2024-03-02T10:43:59;2.50;;;1.40;;
10132;SDS011;5106;50.926;7.080;2024-03-02T10:49:12;1.85;;;1.38;;
10132;SDS011;5106;50.926;7.080;2024-03-02T10:51:38;1.95;;;1.30;;
10132;SDS011;5106;50.926;7.080;2024-03-02T10:54:03;1.35;;;1.20;;
10132;SDS011;5106;50.926;7.080;2024-03-02T10:56:30;2.75;;;1.88;;
10132;SDS011;5106;50.926;7.080;2024-03-02T11:01:49;1.77;;;1.10;;
10132;SDS011;5106;50.926;7.080;2024-03-02T11:04:16;1.85;;;1.20;;
10132;SDS011;5106;50.926;7.080;2024-03-02T11:06:48;3.63;;;1.95;;
10132;SDS011;5106;50.926;7.080;2024-03-02T11:09:15;3.30;;;1.55;;
10132;SDS011;5106;50.926;7.080;2024-03-02T11:11:49;2.80;;;1.52;;
10132;SDS011;5106;50.926;7.080;2024-03-02T11:14:37;1.80;;;1.30;;
10132;SDS011;5106;50.926;7.080;2024-03-02T11:17:05;2.15;;;1.40;;
10132;SDS011;5106;50.926;7.080;2024-03-02T11:19:32;2.15;;;1.30;;
10132;SDS011;5106;50.926;7.080;2024-03-02T11:21:59;1.88;;;1.27;;
10132;SDS011;5106;50.926;7.080;2024-03-02T11:27:09;3.25;;;1.38;;
10132;SDS011;5106;50.926;7.080;2024-03-02T11:34:38;3.30;;;1.20;;
10132;SDS011;5106;50.926;7.080;2024-03-02T11:37:10;2.08;;;1.45;;
10132;SDS011;5106;50.926;7.080;2024-03-02T11:39:36;1.25;;;1.10;;
10132;SDS011;5106;50.926;7.080;2024-03-02T11:42:04;1.55;;;1.10;;
10132;SDS011;5106;50.926;7.080;2024-03-02T11:44:34;1.70;;;1.25;;
10132;SDS011;5106;50.926;7.080;2024-03-02T11:47:02;2.00;;;1.10;;
10132;SDS011;5106;50.926;7.080;2024-03-02T11:52:06;1.83;;;1.20;;
10132;SDS011;5106;50.926;7.080;2024-03-02T11:54:34;2.45;;;1.10;;
10132;SDS011;5106;50.926;7.080;2024-03-02T11:57:01;2.50;;;1.30;;
10132;SDS011;5106;50.926;7.080;2024-03-02T11:59:28;3.95;;;1.30;;
10132;SDS011;5106;50.926;7.080;2024-03-02T12:01:54;1.27;;;1.10;;
10132;SDS011;5106;50.926;7.080;2024-03-02T12:04:20;2.75;;;1.20;;
10132;SDS011;5106;50.926;7.080;2024-03-02T12:06:56;1.85;;;1.10;;
10132;SDS011;5106;50.926;7.080;2024-03-02T12:09:25;1.55;;;1.10;;
10132;SDS011;5106;50.926;7.080;2024-03-02T12:12:04;1.65;;;1.10;;
10132;SDS011;5106;50.926;7.080;2024-03-02T12:14:31;2.70;;;1.30;;
10132;SDS011;5106;50.926;7.080;2024-03-02T12:16:58;1.90;;;0.90;;
10132;SDS011;5106;50.926;7.080;2024-03-02T12:19:24;1.75;;;1.10;;
10132;SDS011;5106;50.926;7.080;2024-03-02T12:21:51;1.85;;;1.10;;
10132;SDS011;5106;50.926;7.080;2024-03-02T12:24:17;1.85;;;1.10;;
10132;SDS011;5106;50.926;7.080;2024-03-02T12:26:43;2.10;;;1.00;;
10132;SDS011;5106;50.926;7.080;2024-03-02T12:29:09;1.40;;;1.20;;
10132;SDS011;5106;50.926;7.080;2024-03-02T12:31:35;1.88;;;1.13;;
10132;SDS011;5106;50.926;7.080;2024-03-02T12:34:01;2.15;;;1.13;;
10132;SDS011;5106;50.926;7.080;2024-03-02T12:36:28;1.30;;;1.02;;
10132;SDS011;5106;50.926;7.080;2024-03-02T12:38:53;1.10;;;1.00;;
10132;SDS011;5106;50.926;7.080;2024-03-02T12:41:19;2.88;;;1.17;;
10132;SDS011;5106;50.926;7.080;2024-03-02T12:43:45;1.50;;;1.20;;
10132;SDS011;5106;50.926;7.080;2024-03-02T12:46:11;3.20;;;1.10;;
10132;SDS011;5106;50.926;7.080;2024-03-02T12:48:36;1.98;;;1.17;;
10132;SDS011;5106;50.926;7.080;2024-03-02T12:51:05;2.00;;;1.23;;
10132;SDS011;5106;50.926;7.080;2024-03-02T12:53:31;1.27;;;1.02;;
10132;SDS011;5106;50.926;7.080;2024-03-02T12:55:57;1.38;;;1.20;;
10132;SDS011;5106;50.926;7.080;2024-03-02T12:58:23;1.23;;;1.13;;
10132;SDS011;5106;50.926;7.080;2024-03-02T13:00:49;1.92;;;1.10;;
10132;SDS011;5106;50.926;7.080;2024-03-02T13:03:14;1.40;;;1.20;;
10132;SDS011;5106;50.926;7.080;2024-03-02T13:05:47;1.50;;;1.15;;
10132;SDS011;5106;50.926;7.080;2024-03-02T13:08:14;2.13;;;0.85;;
10132;SDS011;5106;50.926;7.080;2024-03-02T13:10:40;1.33;;;1.10;;
10132;SDS011;5106;50.926;7.080;2024-03-02T13:13:06;1.30;;;1.10;;
10132;SDS011;5106;50.926;7.080;2024-03-02T13:15:32;1.15;;;0.93;;
10132;SDS011;5106;50.926;7.080;2024-03-02T13:17:59;1.10;;;1.00;;
10132;SDS011;5106;50.926;7.080;2024-03-02T13:20:32;1.48;;;0.88;;
10132;SDS011;5106;50.926;7.080;2024-03-02T13:22:57;1.40;;;1.30;;
10132;SDS011;5106;50.926;7.080;2024-03-02T13:25:23;1.33;;;1.10;;
10132;SDS011;5106;50.926;7.080;2024-03-02T13:27:49;1.45;;;1.10;;
10132;SDS011;5106;50.926;7.080;2024-03-02T13:30:14;1.42;;;1.17;;
10132;SDS011;5106;50.926;7.080;2024-03-02T13:32:40;1.33;;;1.00;;
10132;SDS011;5106;50.926;7.080;2024-03-02T13:35:05;1.50;;;0.98;;
10132;SDS011;5106;50.926;7.080;2024-03-02T13:37:31;3.88;;;1.02;;
10132;SDS011;5106;50.926;7.080;2024-03-02T13:39:57;1.40;;;1.00;;
10132;SDS011;5106;50.926;7.080;2024-03-02T13:42:23;1.85;;;1.08;;
10132;SDS011;5106;50.926;7.080;2024-03-02T13:44:48;1.45;;;1.05;;
10132;SDS011;5106;50.926;7.080;2024-03-02T13:47:16;4.57;;;1.30;;
10132;SDS011;5106;50.926;7.080;2024-03-02T13:49:42;1.45;;;1.00;;
10132;SDS011;5106;50.926;7.080;2024-03-02T13:52:10;1.23;;;1.00;;
10132;SDS011;5106;50.926;7.080;2024-03-02T13:54:38;2.55;;;0.90;;
10132;SDS011;5106;50.926;7.080;2024-03-02T13:57:08;2.20;;;0.88;;
10132;SDS011;5106;50.926;7.080;2024-03-02T13:59:35;1.05;;;0.90;;
10132;SDS011;5106;50.926;7.080;2024-03-02T14:02:01;1.42;;;0.90;;
10132;SDS011;5106;50.926;7.080;2024-03-02T14:04:29;1.10;;;1.00;;
10132;SDS011;5106;50.926;7.080;2024-03-02T14:07:02;1.92;;;1.15;;
10132;SDS011;5106;50.926;7.080;2024-03-02T14:09:28;1.48;;;1.00;;
10132;SDS011;5106;50.926;7.080;2024-03-02T14:11:54;1.27;;;0.98;;
10132;SDS011;5106;50.926;7.080;2024-03-02T14:14:21;1.10;;;0.90;;
10132;SDS011;5106;50.926;7.080;2024-03-02T14:16:48;6.03;;;1.25;;
10132;SDS011;5106;50.926;7.080;2024-03-02T14:19:13;4.03;;;1.15;;
10132;SDS011;5106;50.926;7.080;2024-03-02T14:21:39;2.38;;;1.00;;
10132;SDS011;5106;50.926;7.080;2024-03-02T14:24:05;3.58;;;1.30;;
10132;SDS011;5106;50.926;7.080;2024-03-02T14:26:34;2.35;;;1.00;;
10132;SDS011;5106;50.926;7.080;2024-03-02T14:29:01;3.50;;;1.33;;
10132;SDS011;5106;50.926;7.080;2024-03-02T14:31:28;1.52;;;1.05;;
10132;SDS011;5106;50.926;7.080;2024-03-02T14:33:53;2.85;;;0.98;;
10132;SDS011;5106;50.926;7.080;2024-03-02T14:36:19;1.20;;;0.90;;
10132;SDS011;5106;50.926;7.080;2024-03-02T14:38:45;4.00;;;1.20;;
10132;SDS011;5106;50.926;7.080;2024-03-02T14:41:11;0.75;;;0.75;;
10132;SDS011;5106;50.926;7.080;2024-03-02T14:43:38;1.10;;;0.90;;
10132;SDS011;5106;50.926;7.080;2024-03-02T14:46:03;0.90;;;0.80;;
10132;SDS011;5106;50.926;7.080;2024-03-02T14:48:29;1.45;;;0.88;;
10132;SDS011;5106;50.926;7.080;2024-03-02T14:50:55;1.30;;;1.05;;
10132;SDS011;5106;50.926;7.080;2024-03-02T14:53:20;1.42;;;0.80;;
10132;SDS011;5106;50.926;7.080;2024-03-02T14:55:46;1.10;;;0.95;;
10132;SDS011;5106;50.926;7.080;2024-03-02T14:58:12;1.17;;;0.90;;
10132;SDS011;5106;50.926;7.080;2024-03-02T15:00:37;1.52;;;0.90;;
10132;SDS011;5106;50.926;7.080;2024-03-02T15:03:03;1.65;;;0.93;;
10132;SDS011;5106;50.926;7.080;2024-03-02T15:05:32;2.13;;;0.95;;
10132;SDS011;5106;50.926;7.080;2024-03-02T15:07:58;2.95;;;1.13;;
10132;SDS011;5106;50.926;7.080;2024-03-02T15:10:26;3.50;;;1.17;;
10132;SDS011;5106;50.926;7.080;2024-03-02T15:12:52;4.65;;;1.20;;
10132;SDS011;5106;50.926;7.080;2024-03-02T15:15:18;2.75;;;1.40;;